Time;durP1;ratioP1;P1;durP2;ratioP2;P2;SDS_P1;SDS_P2;PMS_P1;PMS_P2;Temp;Humidity;BMP_temperature;BMP_pressure;BME280_temperature;BME280_humidity;BME280_pressure;Samples;Min_cycle;Max_cycle;Signal;HPM_P1;HPM_P2
2024/01/29 00:01:53;;;;;;;0.10;0.10;;;;;;;3.67;100.00;100355.56;5054762;28;20307;-52
2024/01/29 00:04:40;;;;;;;0.10;0.10;;;;;;;3.55;100.00;100353.13;5033477;28;20229;-52
2024/01/29 00:07:27;;;;;;;0.10;0.10;;;;;;;3.44;100.00;100353.31;5034647;28;20204;-52
2024/01/29 00:10:14;;;;;;;0.10;0.10;;;;;;;3.52;100.00;100345.34;5034864;28;20209;-52
2024/01/29 00:13:03;;;;;;;0.10;0.10;;;;;;;3.42;100.00;100352.47;5014999;28;20301;-53
2024/01/29 00:15:49;;;;;;;0.10;0.10;;;;;;;3.08;100.00;100350.34;5014799;28;20193;-52
2024/01/29 00:18:36;;;;;;;0.10;0.10;;;;;;;3.08;100.00;100342.50;5014224;28;20232;-52
2024/01/29 00:21:23;;;;;;;0.10;0.10;;;;;;;2.68;100.00;100342.19;5021449;28;20200;-52
2024/01/29 00:24:10;;;;;;;0.10;0.10;;;;;;;2.74;100.00;100341.25;5034275;28;20236;-52
2024/01/29 00:26:57;;;;;;;0.10;0.10;;;;;;;2.86;100.00;100336.69;5034420;28;20204;-52
2024/01/29 00:29:45;;;;;;;0.10;0.10;;;;;;;3.02;100.00;100344.34;5034382;28;20200;-53
2024/01/29 00:32:32;;;;;;;0.10;0.10;;;;;;;3.06;100.00;100340.78;5034105;28;20227;-53
2024/01/29 00:35:19;;;;;;;0.10;0.10;;;;;;;3.07;100.00;100342.53;5032994;28;20189;-52
2024/01/29 00:38:06;;;;;;;0.10;0.10;;;;;;;2.69;100.00;100336.06;5034240;28;20189;-52
2024/01/29 00:40:53;;;;;;;0.10;0.10;;;;;;;2.26;100.00;100338.34;5034091;28;20189;-52
2024/01/29 00:43:40;;;;;;;0.10;0.10;;;;;;;2.30;100.00;100340.03;5033989;28;20193;-52
2024/01/29 00:46:28;;;;;;;0.10;0.10;;;;;;;2.38;100.00;100345.19;5034063;28;20201;-52
2024/01/29 00:49:15;;;;;;;0.10;0.10;;;;;;;2.57;100.00;100336.22;5033923;28;20296;-52
2024/01/29 00:52:04;;;;;;;0.10;0.10;;;;;;;2.67;100.00;100340.44;5032623;28;20204;-52
2024/01/29 00:54:50;;;;;;;0.10;0.10;;;;;;;2.73;100.00;100343.00;5033779;28;20205;-52
2024/01/29 00:57:37;;;;;;;0.10;0.10;;;;;;;2.61;100.00;100347.53;5033747;28;20209;-52
2024/01/29 01:00:24;;;;;;;0.10;0.10;;;;;;;2.58;100.00;100346.66;5033860;28;20193;-52
2024/01/29 01:03:12;;;;;;;0.10;0.10;;;;;;;2.31;100.00;100346.97;5019972;28;20258;-52
2024/01/29 01:05:59;;;;;;;0.10;0.10;;;;;;;2.34;100.00;100340.88;5032277;28;20216;-51
2024/01/29 01:08:46;;;;;;;0.20;0.20;;;;;;;2.38;100.00;100355.63;5033618;28;20257;-52
2024/01/29 01:11:33;;;;;;;0.10;0.10;;;;;;;2.53;100.00;100340.63;5042110;28;20251;-53
2024/01/29 01:14:20;;;;;;;0.10;0.10;;;;;;;2.67;100.00;100345.69;5053611;28;20208;-52
2024/01/29 01:17:07;;;;;;;0.10;0.10;;;;;;;2.98;100.00;100343.50;5053425;28;20330;-52
2024/01/29 01:19:55;;;;;;;0.10;0.10;;;;;;;2.87;100.00;100346.28;5052190;28;20686;-52
2024/01/29 01:22:42;;;;;;;0.10;0.10;;;;;;;2.68;100.00;100342.19;5053250;28;20765;-52
2024/01/29 01:25:29;;;;;;;0.10;0.10;;;;;;;2.37;100.00;100341.69;5053023;28;20706;-52
2024/01/29 01:28:16;;;;;;;0.10;0.10;;;;;;;2.37;100.00;100352.16;5053168;28;20200;-52
2024/01/29 01:31:03;;;;;;;0.10;0.10;;;;;;;2.27;100.00;100340.94;5053029;28;20278;-52
2024/01/29 01:33:50;;;;;;;0.10;0.10;;;;;;;2.20;100.00;100347.09;5053286;28;20262;-52
2024/01/29 01:36:38;;;;;;;0.10;0.10;;;;;;;2.18;100.00;100343.66;5051721;28;20258;-52
2024/01/29 01:39:25;;;;;;;0.10;0.10;;;;;;;2.15;100.00;100345.44;5053183;28;20200;-52
2024/01/29 01:42:12;;;;;;;0.10;0.10;;;;;;;2.49;100.00;100343.28;5052336;28;20678;-52
2024/01/29 01:44:59;;;;;;;0.10;0.10;;;;;;;2.64;100.00;100347.47;5052861;28;20258;-52
2024/01/29 01:47:46;;;;;;;0.10;0.10;;;;;;;2.57;100.00;100346.69;5052997;28;20239;-52
2024/01/29 01:50:33;;;;;;;0.10;0.10;;;;;;;2.61;100.00;100345.78;5051630;28;20192;-52
2024/01/29 01:53:22;;;;;;;0.10;0.10;;;;;;;2.51;100.00;100359.81;5052890;28;20224;-52
2024/01/29 01:56:09;;;;;;;0.10;0.10;;;;;;;2.46;100.00;100357.28;5052775;28;20215;-52
2024/01/29 01:58:58;;;;;;;0.10;0.10;;;;;;;2.43;100.00;100357.31;5052744;28;20203;-52
2024/01/29 02:01:46;;;;;;;0.10;0.10;;;;;;;2.36;100.00;100367.84;5037631;28;20395;-52
2024/01/29 02:04:33;;;;;;;0.10;0.10;;;;;;;2.54;100.00;100362.41;5052420;28;20309;-52
2024/01/29 02:07:20;;;;;;;0.10;0.10;;;;;;;2.64;100.00;100350.97;5052967;28;20196;-53
2024/01/29 02:10:09;;;;;;;0.10;0.10;;;;;;;3.11;100.00;100352.94;5052611;28;20199;-52
2024/01/29 02:12:56;;;;;;;0.10;0.10;;;;;;;3.06;100.00;100346.88;5052646;28;20250;-52
2024/01/29 02:15:43;;;;;;;0.10;0.10;;;;;;;3.22;100.00;100349.31;5052678;28;20193;-52
2024/01/29 02:18:31;;;;;;;0.10;0.10;;;;;;;3.18;100.00;100343.22;5052295;28;20197;-51
2024/01/29 02:21:18;;;;;;;0.10;0.10;;;;;;;3.25;100.00;100338.78;5051278;28;20200;-52
2024/01/29 02:24:07;;;;;;;0.10;0.10;;;;;;;3.20;100.00;100335.38;5052533;28;20200;-52
2024/01/29 02:26:54;;;;;;;0.10;0.10;;;;;;;3.23;100.00;100338.81;5052183;28;20302;-52
2024/01/29 02:29:42;;;;;;;0.10;0.10;;;;;;;3.37;100.00;100344.69;5052616;28;20267;-52
2024/01/29 02:32:29;;;;;;;0.10;0.10;;;;;;;3.27;100.00;100340.47;5052593;28;20285;-51
2024/01/29 02:35:16;;;;;;;0.10;0.10;;;;;;;3.28;100.00;100336.09;5051140;28;20196;-52
2024/01/29 02:38:03;;;;;;;0.10;0.10;;;;;;;3.23;100.00;100340.56;5052472;28;20192;-52
2024/01/29 02:40:51;;;;;;;0.10;0.10;;;;;;;3.34;100.00;100330.78;5054337;28;20200;-51
2024/01/29 02:43:38;;;;;;;0.10;0.10;;;;;;;3.29;100.00;100330.88;5056275;28;20223;-52
2024/01/29 02:46:25;;;;;;;0.10;0.10;;;;;;;3.53;100.00;100329.59;5056011;28;20388;-52
2024/01/29 02:49:12;;;;;;;0.10;0.10;;;;;;;3.46;100.00;100320.09;5056222;28;20200;-52
2024/01/29 02:51:59;;;;;;;0.20;0.20;;;;;;;3.41;100.00;100322.81;5054734;28;20368;-52
2024/01/29 02:54:46;;;;;;;0.20;0.20;;;;;;;3.21;100.00;100321.41;5056189;28;20200;-52
2024/01/29 02:57:34;;;;;;;0.10;0.10;;;;;;;3.25;100.00;100323.06;5056150;28;20193;-52
2024/01/29 03:00:21;;;;;;;0.10;0.10;;;;;;;3.21;100.00;100318.78;5055836;28;20196;-51
2024/01/29 03:03:08;;;;;;;0.10;0.10;;;;;;;3.34;100.00;100328.16;5035948;28;20267;-52
2024/01/29 03:05:55;;;;;;;0.10;0.10;;;;;;;3.18;100.00;100322.28;5034373;28;20220;-52
2024/01/29 03:08:43;;;;;;;0.10;0.10;;;;;;;3.10;100.00;100324.19;5055374;28;20196;-52
2024/01/29 03:11:30;;;;;;;0.10;0.10;;;;;;;2.96;100.00;100324.34;5055758;28;20196;-51
2024/01/29 03:14:18;;;;;;;0.10;0.10;;;;;;;2.99;100.00;100326.06;5055745;28;20204;-52
2024/01/29 03:17:05;;;;;;;0.10;0.10;;;;;;;2.92;100.00;100325.31;5055536;28;20262;-52
2024/01/29 03:19:51;;;;;;;0.10;0.10;;;;;;;2.93;100.00;100323.56;5054532;28;20235;-52
2024/01/29 03:22:38;;;;;;;0.10;0.10;;;;;;;3.07;100.00;100321.59;5055604;28;20204;-52
2024/01/29 03:25:25;;;;;;;0.10;0.10;;;;;;;3.11;100.00;100321.53;5055285;28;20264;-51
2024/01/29 03:28:12;;;;;;;0.10;0.10;;;;;;;2.94;100.00;100317.44;5055494;28;20196;-52
2024/01/29 03:31:01;;;;;;;0.10;0.10;;;;;;;2.89;100.00;100312.25;5055161;28;20674;-52
2024/01/29 03:33:48;;;;;;;0.10;0.10;;;;;;;3.05;100.00;100311.13;5055260;28;20235;-52
2024/01/29 03:36:35;;;;;;;0.10;0.10;;;;;;;3.25;100.00;100302.97;5053914;28;20200;-52
2024/01/29 03:39:22;;;;;;;0.10;0.10;;;;;;;3.23;100.00;100309.13;5055159;28;20674;-52
2024/01/29 03:42:08;;;;;;;0.10;0.10;;;;;;;3.18;100.00;100298.72;5054964;28;20913;-52
2024/01/29 03:44:55;;;;;;;0.10;0.10;;;;;;;3.16;100.00;100303.97;5055190;28;20200;-53
2024/01/29 03:47:43;;;;;;;0.10;0.10;;;;;;;3.17;100.00;100307.47;5054905;28;20291;-51
2024/01/29 03:50:30;;;;;;;0.10;0.10;;;;;;;3.02;100.00;100295.50;5052980;28;20197;-52
2024/01/29 03:53:17;;;;;;;0.10;0.10;;;;;;;2.95;100.00;100301.69;5054023;28;20334;-52
2024/01/29 03:56:05;;;;;;;0.10;0.10;;;;;;;3.01;100.00;100292.91;5054953;28;20207;-52
2024/01/29 03:58:51;;;;;;;0.10;0.10;;;;;;;2.98;100.00;100301.66;5054797;28;20276;-53
2024/01/29 04:01:39;;;;;;;0.10;0.10;;;;;;;3.12;100.00;100297.09;5054899;28;20192;-52
2024/01/29 04:04:27;;;;;;;0.10;0.10;;;;;;;2.98;100.00;100303.41;5054525;28;20335;-52
2024/01/29 04:07:14;;;;;;;0.10;0.10;;;;;;;2.70;100.00;100306.44;5054416;28;20220;-52
2024/01/29 04:10:01;;;;;;;0.10;0.10;;;;;;;2.57;100.00;100308.31;5054810;28;20287;-52
2024/01/29 04:12:48;;;;;;;0.10;0.10;;;;;;;2.63;100.00;100296.06;5054573;28;20323;-53
2024/01/29 04:15:35;;;;;;;0.10;0.10;;;;;;;2.68;100.00;100297.72;5054516;28;20283;-52
2024/01/29 04:18:22;;;;;;;0.10;0.10;;;;;;;2.72;100.00;100301.16;5054657;28;20196;-52
2024/01/29 04:21:10;;;;;;;0.10;0.10;;;;;;;2.72;100.00;100299.41;5053218;28;20210;-52
2024/01/29 04:23:57;;;;;;;0.10;0.10;;;;;;;3.17;100.00;100304.84;5054291;28;20430;-52
2024/01/29 04:26:44;;;;;;;0.10;0.10;;;;;;;3.36;100.00;100301.06;5054213;28;20231;-52
2024/01/29 04:29:31;;;;;;;0.10;0.10;;;;;;;3.25;100.00;100300.38;5054439;28;20284;-52
2024/01/29 04:32:18;;;;;;;0.10;0.10;;;;;;;3.03;100.00;100305.06;5054005;28;20200;-52
2024/01/29 04:35:05;;;;;;;0.10;0.10;;;;;;;2.91;100.00;100313.13;5052918;28;20188;-52
2024/01/29 04:37:55;;;;;;;0.10;0.10;;;;;;;2.76;100.00;100315.94;5054162;28;20251;-52
2024/01/29 04:40:43;;;;;;;0.10;0.10;;;;;;;3.03;100.00;100309.44;5053916;28;20197;-52
2024/01/29 04:43:29;;;;;;;0.10;0.10;;;;;;;2.89;100.00;100309.63;5034230;28;20676;-53
2024/01/29 04:46:17;;;;;;;0.10;0.10;;;;;;;2.65;100.00;100317.81;5034019;28;20692;-52
2024/01/29 04:49:03;;;;;;;0.10;0.10;;;;;;;2.95;100.00;100321.78;5033953;28;20212;-52
2024/01/29 04:51:50;;;;;;;0.10;0.10;;;;;;;3.31;100.00;100320.34;5040081;28;20199;-52
2024/01/29 04:54:39;;;;;;;0.10;0.10;;;;;;;2.96;100.00;100326.97;5053863;28;20678;-52
2024/01/29 04:57:26;;;;;;;0.10;0.10;;;;;;;2.88;100.00;100323.59;5053707;28;20278;-52
2024/01/29 05:00:13;;;;;;;0.10;0.10;;;;;;;2.73;100.00;100326.44;5053501;28;20219;-53
2024/01/29 05:03:00;;;;;;;0.10;0.10;;;;;;;2.46;100.00;100325.91;5053079;28;20212;-52
2024/01/29 05:05:47;;;;;;;0.10;0.10;;;;;;;2.70;100.00;100329.06;5052154;28;20683;-52
2024/01/29 05:08:34;;;;;;;0.10;0.10;;;;;;;2.53;100.00;100326.69;5053572;28;20199;-52
2024/01/29 05:11:22;;;;;;;0.10;0.10;;;;;;;2.54;100.00;100321.44;5053476;28;20192;-52
2024/01/29 05:14:09;;;;;;;0.10;0.10;;;;;;;2.46;100.00;100327.66;5053386;28;20264;-52
2024/01/29 05:16:56;;;;;;;0.10;0.10;;;;;;;2.29;100.00;100333.94;5053463;28;20193;-52
2024/01/29 05:19:45;;;;;;;0.10;0.10;;;;;;;2.24;100.00;100327.91;5052106;28;20203;-52
2024/01/29 05:22:32;;;;;;;0.10;0.10;;;;;;;2.21;100.00;100327.06;5053210;28;20200;-52
2024/01/29 05:25:19;;;;;;;0.10;0.10;;;;;;;2.17;100.00;100336.69;5053257;28;20375;-52
2024/01/29 05:28:08;;;;;;;0.10;0.10;;;;;;;2.24;100.00;100327.03;5052941;28;20262;-52
2024/01/29 05:30:55;;;;;;;0.10;0.10;;;;;;;2.36;100.00;100323.41;5053154;28;20208;-52
2024/01/29 05:33:42;;;;;;;0.10;0.10;;;;;;;2.35;100.00;100332.16;5032033;28;20200;-52
2024/01/29 05:36:29;;;;;;;0.10;0.10;;;;;;;2.30;100.00;100334.78;5032037;28;20201;-52
2024/01/29 05:39:16;;;;;;;0.10;0.10;;;;;;;2.29;100.00;100344.38;5045792;28;20218;-52
2024/01/29 05:42:03;;;;;;;0.10;0.10;;;;;;;2.17;100.00;100330.59;5052910;28;20246;-52
2024/01/29 05:44:51;;;;;;;0.10;0.10;;;;;;;2.22;100.00;100328.78;5052966;28;20196;-52
2024/01/29 05:47:38;;;;;;;0.10;0.10;;;;;;;2.25;100.00;100327.03;5052747;28;20235;-52
2024/01/29 05:50:25;;;;;;;0.10;0.10;;;;;;;2.25;100.00;100328.78;5051584;28;20193;-52
2024/01/29 05:53:12;;;;;;;0.10;0.10;;;;;;;2.30;100.00;100330.44;5052737;28;20199;-52
2024/01/29 05:55:58;;;;;;;0.10;0.10;;;;;;;2.38;100.00;100334.72;5052240;28;20299;-52
2024/01/29 05:58:46;;;;;;;0.10;0.10;;;;;;;2.54;100.00;100331.91;5052903;28;20246;-52
2024/01/29 06:01:34;;;;;;;0.10;0.10;;;;;;;2.57;100.00;100329.25;5052773;28;20223;-52
2024/01/29 06:04:21;;;;;;;0.10;0.10;;;;;;;2.62;100.00;100323.97;5052434;28;20227;-52
2024/01/29 06:07:08;;;;;;;0.10;0.10;;;;;;;2.63;100.00;100328.31;5052563;28;20216;-52
2024/01/29 06:09:55;;;;;;;0.10;0.10;;;;;;;2.52;100.00;100332.81;5052808;28;20262;-52
2024/01/29 06:12:43;;;;;;;0.10;0.10;;;;;;;2.50;100.00;100334.56;5052685;28;20211;-52
2024/01/29 06:15:30;;;;;;;0.10;0.10;;;;;;;2.43;100.00;100328.56;5054341;28;20687;-52
2024/01/29 06:18:18;;;;;;;0.10;0.10;;;;;;;2.57;100.00;100336.22;5056704;28;20238;-52
2024/01/29 06:21:05;;;;;;;0.10;0.10;;;;;;;2.51;100.00;100333.66;5055387;28;20253;-52
2024/01/29 06:23:51;;;;;;;0.10;0.10;;;;;;;2.46;100.00;100338.09;5036828;28;20192;-52
2024/01/29 06:26:38;;;;;;;0.10;0.10;;;;;;;2.47;100.00;100329.38;5036664;28;20200;-52
2024/01/29 06:29:25;;;;;;;0.10;0.10;;;;;;;2.65;100.00;100326.53;5036767;28;20256;-52
2024/01/29 06:32:12;;;;;;;0.10;0.10;;;;;;;2.69;100.00;100325.59;5045562;28;20262;-52
2024/01/29 06:35:00;;;;;;;0.10;0.10;;;;;;;2.70;100.00;100335.19;5055165;28;20208;-52
2024/01/29 06:37:47;;;;;;;0.10;0.10;;;;;;;2.74;100.00;100331.66;5056506;28;20421;-52
2024/01/29 06:40:34;;;;;;;0.10;0.10;;;;;;;2.89;100.00;100341.03;5056380;28;20209;-52
2024/01/29 06:43:20;;;;;;;0.10;0.10;;;;;;;2.47;100.00;100339.84;5056406;28;20382;-52
2024/01/29 06:46:07;;;;;;;0.10;0.10;;;;;;;2.98;100.00;100342.66;5056387;28;20303;-52
2024/01/29 06:48:54;;;;;;;0.10;0.10;;;;;;;2.38;100.00;100343.44;5056096;28;20366;-52
2024/01/29 06:51:43;;;;;;;0.10;0.10;;;;;;;2.39;100.00;100337.31;5054857;28;20200;-52
2024/01/29 06:54:29;;;;;;;0.10;0.10;;;;;;;2.54;100.00;100355.44;5056178;28;20212;-51
2024/01/29 06:57:16;;;;;;;0.10;0.10;;;;;;;2.39;100.00;100357.34;5056055;28;20359;-52
2024/01/29 07:00:05;;;;;;;0.10;0.10;;;;;;;2.20;100.00;100364.53;5055716;28;20723;-52
2024/01/29 07:02:52;;;;;;;0.10;0.10;;;;;;;2.12;100.00;100358.53;5055899;28;20231;-52
2024/01/29 07:05:39;;;;;;;0.10;0.10;;;;;;;1.91;100.00;100373.53;5054413;28;20316;-52
2024/01/29 07:08:27;;;;;;;0.10;0.10;;;;;;;2.07;100.00;100387.31;5055663;28;20211;-52
2024/01/29 07:11:14;;;;;;;0.10;0.10;;;;;;;1.84;100.00;100398.00;5055825;28;20187;-52
2024/01/29 07:14:01;;;;;;;0.10;0.10;;;;;;;1.88;100.00;100401.44;5055824;28;20236;-52
2024/01/29 07:16:47;;;;;;;0.10;0.10;;;;;;;1.88;100.00;100391.00;5055789;28;20195;-52
2024/01/29 07:19:34;;;;;;;0.10;0.10;;;;;;;1.87;100.00;100399.72;5055390;28;20197;-53
2024/01/29 07:22:21;;;;;;;0.10;0.10;;;;;;;1.87;100.00;100405.78;5055472;28;20204;-52
2024/01/29 07:25:10;;;;;;;0.10;0.10;;;;;;;1.72;100.00;100405.91;5040304;28;20252;-52
2024/01/29 07:27:59;;;;;;;0.10;0.10;;;;;;;1.77;100.00;100408.50;5055254;28;20216;-52
2024/01/29 07:30:46;;;;;;;0.10;0.10;;;;;;;1.76;100.00;100401.56;5055519;28;20268;-52
2024/01/29 07:33:33;;;;;;;0.10;0.10;;;;;;;1.86;100.00;100411.91;5055368;28;20196;-52
2024/01/29 07:36:20;;;;;;;0.10;0.10;;;;;;;2.19;100.00;100415.94;5054167;28;20199;-52
2024/01/29 07:39:06;;;;;;;0.10;0.10;;;;;;;2.16;100.00;100415.97;5055046;28;20275;-52
2024/01/29 07:41:54;;;;;;;0.10;0.10;;;;;;;2.22;100.00;100415.94;5055147;28;20192;-53
2024/01/29 07:44:41;;;;;;;0.10;0.10;;;;;;;2.52;100.00;100412.13;5054786;28;20200;-52
2024/01/29 07:47:28;;;;;;;0.13;0.13;;;;;;;2.66;100.00;100411.09;5054740;28;20197;-52
2024/01/29 07:50:15;;;;;;;0.10;0.10;;;;;;;2.66;100.00;100419.81;5053968;28;20192;-52
2024/01/29 07:53:02;;;;;;;0.10;0.10;;;;;;;2.69;100.00;100411.91;5055218;28;20203;-52
2024/01/29 07:55:49;;;;;;;0.10;0.10;;;;;;;2.90;100.00;100415.19;5054981;28;20279;-52
2024/01/29 07:58:37;;;;;;;0.10;0.10;;;;;;;3.17;100.00;100412.19;5054858;28;20258;-52
2024/01/29 08:01:24;;;;;;;0.10;0.10;;;;;;;3.25;100.00;100418.19;5054781;28;20204;-52
2024/01/29 08:04:11;;;;;;;0.10;0.10;;;;;;;3.03;100.00;100407.13;5038801;28;20223;-52
2024/01/29 08:06:58;;;;;;;0.10;0.10;;;;;;;3.13;100.00;100426.22;5033936;28;20259;-52
2024/01/29 08:09:46;;;;;;;0.10;0.10;;;;;;;3.25;100.00;100426.03;5034452;28;20283;-52
2024/01/29 08:12:32;;;;;;;0.10;0.10;;;;;;;3.44;100.00;100418.78;5045114;28;20196;-52
2024/01/29 08:15:22;;;;;;;0.10;0.10;;;;;;;3.51;100.00;100422.19;5054577;28;20187;-52
2024/01/29 08:18:09;;;;;;;0.10;0.10;;;;;;;3.59;100.00;100415.94;5054533;28;20555;-52
2024/01/29 08:20:56;;;;;;;0.00;0.00;;;;;;;3.69;100.00;100412.28;5053264;28;20243;-52
2024/01/29 08:23:44;;;;;;;0.10;0.10;;;;;;;3.68;100.00;100415.81;5034244;28;20204;-52
2024/01/29 08:26:31;;;;;;;0.10;0.10;;;;;;;4.03;100.00;100406.47;5034463;28;20224;-53
2024/01/29 08:29:18;;;;;;;0.10;0.10;;;;;;;4.03;100.00;100416.97;5033147;28;20236;-52
2024/01/29 08:32:07;;;;;;;0.10;0.10;;;;;;;4.05;100.00;100409.94;5040523;28;20290;-52
2024/01/29 08:34:54;;;;;;;0.10;0.10;;;;;;;4.26;100.00;100408.72;5052969;28;20243;-52
2024/01/29 08:37:41;;;;;;;0.10;0.10;;;;;;;4.40;100.00;100409.31;5053445;28;20258;-52
2024/01/29 08:40:28;;;;;;;0.10;0.10;;;;;;;4.63;100.00;100402.75;5054178;28;20214;-52
2024/01/29 08:43:15;;;;;;;0.10;0.10;;;;;;;4.35;100.00;100400.69;5054077;28;20196;-52
2024/01/29 08:46:02;;;;;;;0.10;0.10;;;;;;;4.59;100.00;100392.31;5054008;28;20239;-52
2024/01/29 08:48:50;;;;;;;0.10;0.10;;;;;;;4.58;100.00;100395.84;5053699;28;20243;-52
2024/01/29 08:51:37;;;;;;;0.10;0.10;;;;;;;4.72;100.00;100402.56;5052678;28;20575;-52
2024/01/29 08:54:23;;;;;;;0.10;0.10;;;;;;;4.72;100.00;100392.94;5053374;28;20196;-52
2024/01/29 08:57:11;;;;;;;0.10;0.10;;;;;;;4.92;100.00;100402.16;5053642;28;20679;-52
2024/01/29 08:59:58;;;;;;;0.10;0.10;;;;;;;5.03;100.00;100401.06;5053841;28;20180;-52
2024/01/29 09:02:46;;;;;;;0.10;0.10;;;;;;;5.28;100.00;100390.88;5053797;28;20216;-52
2024/01/29 09:05:34;;;;;;;0.10;0.10;;;;;;;5.71;100.00;100382.84;5052174;28;20196;-52
2024/01/29 09:08:27;;;;;;;0.10;0.10;;;;;;;6.01;100.00;100391.78;5056025;28;20251;-52
2024/01/29 09:11:19;;;;;;;0.10;0.10;;;;;;;5.58;100.00;100394.53;5057810;28;20270;-52
2024/01/29 09:14:06;;;;;;;0.10;0.10;;;;;;;6.38;100.00;100388.19;5033417;28;20503;-52
2024/01/29 09:16:53;;;;;;;0.10;0.10;;;;;;;6.68;100.00;100393.50;5033627;28;20232;-52
2024/01/29 09:19:40;;;;;;;0.10;0.10;;;;;;;6.40;100.00;100390.75;5032293;28;20243;-52
2024/01/29 09:22:28;;;;;;;0.10;0.10;;;;;;;6.23;100.00;100391.22;5041972;28;20204;-52
2024/01/29 09:25:15;;;;;;;0.00;0.00;;;;;;;6.32;100.00;100394.44;5053443;28;20196;-52
2024/01/29 09:28:02;;;;;;;0.10;0.10;;;;;;;6.48;100.00;100400.19;5053232;28;20204;-52
2024/01/29 09:30:49;;;;;;;0.10;0.10;;;;;;;6.96;100.00;100404.09;5053195;28;20207;-52
2024/01/29 09:33:36;;;;;;;0.10;0.10;;;;;;;6.65;100.00;100399.69;5053104;28;20208;-52
2024/01/29 09:36:23;;;;;;;0.10;0.10;;;;;;;6.78;100.00;100387.06;5051450;28;20195;-52
2024/01/29 09:39:11;;;;;;;0.10;0.10;;;;;;;7.50;98.01;100395.41;5053025;28;20196;-53
2024/01/29 09:42:02;;;;;;;0.10;0.10;;;;;;;8.42;90.24;100403.81;5052965;28;20204;-52
2024/01/29 09:44:52;;;;;;;0.10;0.10;;;;;;;8.11;86.72;100402.22;5052930;28;20192;-53
2024/01/29 09:47:39;;;;;;;0.10;0.10;;;;;;;8.77;84.41;100405.19;5037885;28;20207;-52
2024/01/29 09:50:27;;;;;;;0.10;0.10;;;;;;;9.64;76.66;100405.34;5051225;28;20216;-53
2024/01/29 09:53:17;;;;;;;0.10;0.10;;;;;;;8.71;79.12;100401.00;5052923;28;20204;-52
2024/01/29 09:56:06;;;;;;;0.10;0.10;;;;;;;8.88;80.34;100395.13;5052943;28;20211;-52
2024/01/29 09:58:53;;;;;;;0.10;0.10;;;;;;;9.91;74.23;100397.22;5052836;28;20204;-53
2024/01/29 10:01:42;;;;;;;0.10;0.10;;;;;;;11.44;63.97;100388.63;5052535;28;20315;-53
2024/01/29 10:04:29;;;;;;;0.20;0.20;;;;;;;11.24;63.44;100386.94;5052232;28;20225;-52
2024/01/29 10:07:16;;;;;;;0.10;0.10;;;;;;;11.73;58.66;100389.88;5052614;28;20196;-53
2024/01/29 10:10:03;;;;;;;0.10;0.10;;;;;;;12.15;56.70;100388.69;5052475;28;20228;-53
2024/01/29 10:12:52;;;;;;;0.10;0.10;;;;;;;11.43;57.88;100387.78;5052642;28;20204;-53
2024/01/29 10:15:38;;;;;;;0.10;0.10;;;;;;;12.27;55.69;100386.31;5052746;28;20399;-52
2024/01/29 10:18:25;;;;;;;0.10;0.10;;;;;;;12.57;53.70;100391.81;5052674;28;20253;-53
2024/01/29 10:21:12;;;;;;;0.10;0.10;;;;;;;12.84;51.86;100378.88;5051281;28;20188;-53
2024/01/29 10:23:59;;;;;;;0.10;0.10;;;;;;;12.93;51.97;100385.47;5032630;28;20236;-53
2024/01/29 10:26:47;;;;;;;0.10;0.10;;;;;;;13.41;50.25;100383.75;5032617;28;20260;-52
2024/01/29 10:29:35;;;;;;;0.10;0.10;;;;;;;13.72;49.08;100372.25;5032561;28;20784;-52
2024/01/29 10:32:22;;;;;;;0.10;0.10;;;;;;;14.03;47.99;100379.31;5039329;28;20196;-53
2024/01/29 10:35:09;;;;;;;0.10;0.10;;;;;;;12.90;50.46;100367.03;5051116;28;20681;-53
2024/01/29 10:38:02;;;;;;;0.00;0.00;;;;;;;13.52;50.45;100370.72;5052619;28;20204;-53
2024/01/29 10:40:49;;;;;;;0.10;0.10;;;;;;;14.08;48.15;100368.34;5052473;28;20196;-53
2024/01/29 10:43:38;;;;;;;0.10;0.10;;;;;;;13.73;49.66;100363.31;5052019;28;20195;-52
2024/01/29 10:46:28;;;;;;;0.10;0.10;;;;;;;14.38;48.53;100360.34;5052344;28;20204;-53
2024/01/29 10:49:16;;;;;;;0.10;0.10;;;;;;;14.57;46.06;100355.63;5052178;28;20273;-53
2024/01/29 10:52:05;;;;;;;0.10;0.10;;;;;;;13.30;49.72;100340.91;5052130;28;20208;-53
2024/01/29 10:54:52;;;;;;;0.10;0.10;;;;;;;11.78;55.33;100358.66;5052314;28;20204;-53
2024/01/29 10:57:40;;;;;;;0.10;0.10;;;;;;;11.53;57.69;100351.03;5051901;28;20315;-53
2024/01/29 11:00:27;;;;;;;0.10;0.10;;;;;;;13.45;53.62;100359.53;5051777;28;20306;-53
2024/01/29 11:03:17;;;;;;;0.10;0.10;;;;;;;13.39;50.72;100343.91;5055766;28;20355;-53
2024/01/29 11:06:12;;;;;;;0.10;0.10;;;;;;;13.34;51.19;100353.13;5054678;28;20200;-52
2024/01/29 11:09:04;;;;;;;0.10;0.10;;;;;;;12.56;53.11;100358.22;5055765;28;20678;-53
2024/01/29 11:11:53;;;;;;;0.10;0.10;;;;;;;14.18;50.08;100353.53;5055723;28;20208;-53
2024/01/29 11:14:40;;;;;;;0.10;0.10;;;;;;;13.24;51.90;100363.41;5055874;28;20200;-53
2024/01/29 11:17:28;;;;;;;0.10;0.10;;;;;;;13.21;54.88;100344.09;5055767;28;20555;-53
2024/01/29 11:20:18;;;;;;;0.10;0.10;;;;;;;12.14;57.52;100355.97;5054320;28;20300;-53
2024/01/29 11:23:06;;;;;;;0.10;0.10;;;;;;;12.79;56.45;100353.44;5055484;28;20199;-52
2024/01/29 11:26:00;;;;;;;0.10;0.10;;;;;;;14.26;53.69;100353.94;5055508;28;20204;-53
2024/01/29 11:28:54;;;;;;;0.10;0.10;;;;;;;15.06;49.64;100341.94;5055544;28;20192;-53
2024/01/29 11:31:42;;;;;;;0.10;0.10;;;;;;;14.77;48.21;100341.94;5055228;28;20189;-53
2024/01/29 11:34:29;;;;;;;0.10;0.10;;;;;;;13.88;48.78;100341.09;5054619;28;20270;-54
2024/01/29 11:37:28;;;;;;;0.10;0.10;;;;;;;13.85;50.58;100351.94;5055439;28;20634;-53
2024/01/29 11:40:32;;;;;;;0.10;0.10;;;;;;;15.87;48.32;100336.66;5055374;28;20216;-53
2024/01/29 11:43:20;;;;;;;0.10;0.10;;;;;;;14.50;48.45;100333.00;5054979;28;20274;-53
2024/01/29 11:46:09;;;;;;;0.10;0.10;;;;;;;14.47;50.00;100333.16;5055038;28;20192;-53
2024/01/29 11:48:56;;;;;;;0.10;0.10;;;;;;;14.16;50.79;100334.97;5055114;28;20197;-53
2024/01/29 11:51:44;;;;;;;0.10;0.10;;;;;;;15.49;49.33;100321.31;5053610;28;20204;-53
2024/01/29 11:54:32;;;;;;;0.10;0.10;;;;;;;15.95;46.67;100326.31;5039779;28;20192;-53
2024/01/29 11:57:19;;;;;;;0.10;0.10;;;;;;;14.35;49.35;100324.06;5055073;28;20204;-53
2024/01/29 12:00:08;;;;;;;0.10;0.10;;;;;;;14.80;48.53;100319.56;5054997;28;20192;-53
2024/01/29 12:02:55;;;;;;;0.10;0.10;;;;;;;15.86;47.33;100334.94;5054652;28;20267;-53
2024/01/29 12:05:42;;;;;;;0.10;0.10;;;;;;;14.43;49.75;100320.94;5053472;28;20311;-53
2024/01/29 12:08:30;;;;;;;0.10;0.10;;;;;;;15.27;48.01;100310.34;5054200;28;20196;-53
2024/01/29 12:11:20;;;;;;;0.10;0.10;;;;;;;15.73;46.94;100311.72;5054302;28;20227;-53
2024/01/29 12:14:08;;;;;;;0.10;0.10;;;;;;;14.13;50.67;100321.84;5038413;28;20220;-53
2024/01/29 12:16:57;;;;;;;0.10;0.10;;;;;;;14.01;51.29;100323.44;5054645;28;20195;-52
2024/01/29 12:19:44;;;;;;;0.10;0.10;;;;;;;13.34;55.61;100318.53;5053049;28;20212;-53
2024/01/29 12:22:31;;;;;;;0.10;0.10;;;;;;;15.70;49.98;100311.06;5054380;28;20212;-53
2024/01/29 12:25:17;;;;;;;0.10;0.10;;;;;;;15.59;46.33;100305.53;5054505;28;20200;-53
2024/01/29 12:28:10;;;;;;;0.10;0.10;;;;;;;17.29;44.34;100291.88;5054359;28;20199;-53
2024/01/29 12:30:58;;;;;;;0.10;0.10;;;;;;;17.23;42.59;100298.53;5054206;28;20216;-54
2024/01/29 12:33:47;;;;;;;0.10;0.10;;;;;;;16.09;44.55;100303.97;5054264;28;20208;-54
2024/01/29 12:36:34;;;;;;;0.10;0.10;;;;;;;16.47;44.96;100293.28;5052930;28;20197;-53
2024/01/29 12:39:21;;;;;;;0.10;0.10;;;;;;;17.53;43.66;100303.44;5054249;28;20193;-54
2024/01/29 12:42:15;;;;;;;0.10;0.10;;;;;;;17.05;42.99;100300.72;5054092;28;20195;-54
2024/01/29 12:45:10;;;;;;;0.10;0.10;;;;;;;18.67;41.45;100299.19;5054139;28;20287;-54
2024/01/29 12:48:07;;;;;;;0.10;0.10;;;;;;;18.62;41.00;100295.09;5054023;28;20764;-53
2024/01/29 12:50:53;;;;;;;0.00;0.00;;;;;;;18.97;40.01;100298.56;5052295;28;20227;-53
2024/01/29 12:53:42;;;;;;;0.10;0.10;;;;;;;18.83;39.85;100302.34;5053605;28;20203;-53
2024/01/29 12:56:30;;;;;;;0.10;0.10;;;;;;;20.69;37.17;100285.84;5053139;28;20264;-54
2024/01/29 12:59:17;;;;;;;0.10;0.10;;;;;;;19.79;37.61;100296.31;5053699;28;20185;-54